Terminal Aerodrome Forecast
Issued by NWS

Home | Current Version | Previous Version | Text Only | Print | Product List | Glossary Off
Versions: 1 2 3 4 5 6 7 8 9 10 11 12 13 14

000
FTUS43 KOAX 252321
TAFCDR
TAF
KCDR 252321Z 2600/2624 16015G25KT P6SM SKC
     FM260900 19009KT P6SM SCT250
     FM262000 13012G20KT P6SM VCTS SCT150CB=

USA.gov is the U.S. government's official web portal to all federal, state and local government web resources and services.